sensor_id;sensor_type;location;lat;lon;timestamp;temperature;humidity
39677;DHT22;27789;50.840;4.386;2022-11-21T00:01:17;8.50;99.90
39677;DHT22;27789;50.840;4.386;2022-11-21T00:03:42;8.50;99.90
39677;DHT22;27789;50.840;4.386;2022-11-21T00:06:08;8.40;99.90
39677;DHT22;27789;50.840;4.386;2022-11-21T00:08:33;8.30;99.90
39677;DHT22;27789;50.840;4.386;2022-11-21T00:10:59;8.30;99.90
39677;DHT22;27789;50.840;4.386;2022-11-21T00:13:25;8.30;99.90
39677;DHT22;27789;50.840;4.386;2022-11-21T00:15:51;8.20;99.90
39677;DHT22;27789;50.840;4.386;2022-11-21T00:18:16;8.20;99.90
39677;DHT22;27789;50.840;4.386;2022-11-21T00:20:43;8.20;99.90
39677;DHT22;27789;50.840;4.386;2022-11-21T00:23:09;8.20;99.90
39677;DHT22;27789;50.840;4.386;2022-11-21T00:25:35;8.10;99.90
39677;DHT22;27789;50.840;4.386;2022-11-21T00:28:01;8.10;99.90
39677;DHT22;27789;50.840;4.386;2022-11-21T00:30:27;8.10;99.90
39677;DHT22;27789;50.840;4.386;2022-11-21T00:32:53;8.10;99.90
39677;DHT22;27789;50.840;4.386;2022-11-21T00:35:19;8.20;99.90
39677;DHT22;27789;50.840;4.386;2022-11-21T00:37:44;8.20;99.90
39677;DHT22;27789;50.840;4.386;2022-11-21T00:40:12;8.20;99.90
39677;DHT22;27789;50.840;4.386;2022-11-21T00:42:37;8.20;99.90
39677;DHT22;27789;50.840;4.386;2022-11-21T00:45:03;8.20;99.90
39677;DHT22;27789;50.840;4.386;2022-11-21T00:47:29;8.20;99.90
39677;DHT22;27789;50.840;4.386;2022-11-21T00:49:54;8.20;99.90
39677;DHT22;27789;50.840;4.386;2022-11-21T00:52:20;8.20;99.90
39677;DHT22;27789;50.840;4.386;2022-11-21T00:54:45;8.20;99.90
39677;DHT22;27789;50.840;4.386;2022-11-21T00:57:11;8.40;99.90
39677;DHT22;27789;50.840;4.386;2022-11-21T00:59:36;8.30;99.90
39677;DHT22;27789;50.840;4.386;2022-11-21T01:02:02;8.20;99.90
39677;DHT22;27789;50.840;4.386;2022-11-21T01:04:31;8.30;99.90
39677;DHT22;27789;50.840;4.386;2022-11-21T01:06:57;8.40;99.90
39677;DHT22;27789;50.840;4.386;2022-11-21T01:09:23;8.30;99.90
39677;DHT22;27789;50.840;4.386;2022-11-21T01:11:48;8.30;99.90
39677;DHT22;27789;50.840;4.386;2022-11-21T01:14:14;8.30;99.90
39677;DHT22;27789;50.840;4.386;2022-11-21T01:16:40;8.30;99.90
39677;DHT22;27789;50.840;4.386;2022-11-21T01:19:05;8.30;99.90
39677;DHT22;27789;50.840;4.386;2022-11-21T01:21:31;8.30;99.90
39677;DHT22;27789;50.840;4.386;2022-11-21T01:24:00;8.20;99.90
39677;DHT22;27789;50.840;4.386;2022-11-21T01:26:28;8.20;99.90
39677;DHT22;27789;50.840;4.386;2022-11-21T01:28:55;8.10;99.90
39677;DHT22;27789;50.840;4.386;2022-11-21T01:31:23;8.10;99.90
39677;DHT22;27789;50.840;4.386;2022-11-21T01:33:50;8.00;99.90
39677;DHT22;27789;50.840;4.386;2022-11-21T01:36:17;7.90;99.90
39677;DHT22;27789;50.840;4.386;2022-11-21T01:38:46;8.00;99.90
39677;DHT22;27789;50.840;4.386;2022-11-21T01:41:35;8.00;99.90
39677;DHT22;27789;50.840;4.386;2022-11-21T01:44:14;8.00;99.90
39677;DHT22;27789;50.840;4.386;2022-11-21T01:46:40;8.00;99.90
39677;DHT22;27789;50.840;4.386;2022-11-21T01:49:13;8.10;99.90
39677;DHT22;27789;50.840;4.386;2022-11-21T01:51:43;8.00;99.90
39677;DHT22;27789;50.840;4.386;2022-11-21T01:54:18;8.00;99.90
39677;DHT22;27789;50.840;4.386;2022-11-21T02:02:33;8.10;99.90
39677;DHT22;27789;50.840;4.386;2022-11-21T02:05:00;8.10;99.90
39677;DHT22;27789;50.840;4.386;2022-11-21T02:07:27;8.10;99.90
39677;DHT22;27789;50.840;4.386;2022-11-21T02:09:56;8.00;99.90
39677;DHT22;27789;50.840;4.386;2022-11-21T02:12:37;8.10;99.90
39677;DHT22;27789;50.840;4.386;2022-11-21T02:15:04;8.10;99.90
39677;DHT22;27789;50.840;4.386;2022-11-21T02:17:30;8.10;99.90
39677;DHT22;27789;50.840;4.386;2022-11-21T02:20:02;8.10;99.90
39677;DHT22;27789;50.840;4.386;2022-11-21T02:25:08;8.10;99.90
39677;DHT22;27789;50.840;4.386;2022-11-21T02:27:34;8.10;99.90
39677;DHT22;27789;50.840;4.386;2022-11-21T02:30:01;8.10;99.90
39677;DHT22;27789;50.840;4.386;2022-11-21T02:32:39;8.00;99.90
39677;DHT22;27789;50.840;4.386;2022-11-21T02:35:06;8.00;99.90
39677;DHT22;27789;50.840;4.386;2022-11-21T02:37:32;8.00;99.90
39677;DHT22;27789;50.840;4.386;2022-11-21T02:40:02;8.00;99.90
39677;DHT22;27789;50.840;4.386;2022-11-21T02:45:21;8.00;99.90
39677;DHT22;27789;50.840;4.386;2022-11-21T02:47:52;7.90;99.90
39677;DHT22;27789;50.840;4.386;2022-11-21T02:52:45;7.90;99.90
39677;DHT22;27789;50.840;4.386;2022-11-21T02:55:10;7.80;99.90
39677;DHT22;27789;50.840;4.386;2022-11-21T02:57:38;7.70;99.90
39677;DHT22;27789;50.840;4.386;2022-11-21T03:00:04;7.70;99.90
39677;DHT22;27789;50.840;4.386;2022-11-21T03:02:30;7.80;99.90
39677;DHT22;27789;50.840;4.386;2022-11-21T03:04:56;7.80;99.90
39677;DHT22;27789;50.840;4.386;2022-11-21T03:07:21;7.70;99.90
39677;DHT22;27789;50.840;4.386;2022-11-21T03:09:47;7.70;99.90
39677;DHT22;27789;50.840;4.386;2022-11-21T03:12:13;7.70;99.90
39677;DHT22;27789;50.840;4.386;2022-11-21T03:14:38;7.80;99.90
39677;DHT22;27789;50.840;4.386;2022-11-21T03:17:04;7.70;99.90
39677;DHT22;27789;50.840;4.386;2022-11-21T03:19:30;7.70;99.90
39677;DHT22;27789;50.840;4.386;2022-11-21T03:21:56;7.60;99.90
39677;DHT22;27789;50.840;4.386;2022-11-21T03:24:21;7.70;99.90
39677;DHT22;27789;50.840;4.386;2022-11-21T03:26:47;7.70;99.90
39677;DHT22;27789;50.840;4.386;2022-11-21T03:29:12;7.70;99.90
39677;DHT22;27789;50.840;4.386;2022-11-21T03:31:38;7.70;99.90
39677;DHT22;27789;50.840;4.386;2022-11-21T03:34:04;7.70;99.90
39677;DHT22;27789;50.840;4.386;2022-11-21T03:36:30;7.80;99.90
39677;DHT22;27789;50.840;4.386;2022-11-21T03:38:56;7.80;99.90
39677;DHT22;27789;50.840;4.386;2022-11-21T03:41:23;7.70;99.90
39677;DHT22;27789;50.840;4.386;2022-11-21T03:43:56;7.70;99.90
39677;DHT22;27789;50.840;4.386;2022-11-21T03:46:22;7.70;99.90
39677;DHT22;27789;50.840;4.386;2022-11-21T03:48:48;7.60;99.90
39677;DHT22;27789;50.840;4.386;2022-11-21T03:51:13;7.60;99.90
39677;DHT22;27789;50.840;4.386;2022-11-21T03:53:39;7.60;99.90
39677;DHT22;27789;50.840;4.386;2022-11-21T03:56:04;7.60;99.90
39677;DHT22;27789;50.840;4.386;2022-11-21T03:58:30;7.60;99.90
39677;DHT22;27789;50.840;4.386;2022-11-21T04:00:56;7.60;99.90
39677;DHT22;27789;50.840;4.386;2022-11-21T04:03:21;7.50;99.90
39677;DHT22;27789;50.840;4.386;2022-11-21T04:05:47;7.50;99.90
39677;DHT22;27789;50.840;4.386;2022-11-21T04:08:13;7.50;99.90
39677;DHT22;27789;50.840;4.386;2022-11-21T04:10:38;7.60;99.90
39677;DHT22;27789;50.840;4.386;2022-11-21T04:13:04;7.60;99.90
39677;DHT22;27789;50.840;4.386;2022-11-21T04:15:29;7.60;99.90
39677;DHT22;27789;50.840;4.386;2022-11-21T04:17:55;7.60;99.90
39677;DHT22;27789;50.840;4.386;2022-11-21T04:20:20;7.60;99.90
39677;DHT22;27789;50.840;4.386;2022-11-21T04:22:46;7.70;99.90
39677;DHT22;27789;50.840;4.386;2022-11-21T04:25:11;7.70;99.90
39677;DHT22;27789;50.840;4.386;2022-11-21T04:27:38;7.70;99.90
39677;DHT22;27789;50.840;4.386;2022-11-21T04:30:05;7.60;99.90
39677;DHT22;27789;50.840;4.386;2022-11-21T04:32:30;7.60;99.90
39677;DHT22;27789;50.840;4.386;2022-11-21T04:34:56;7.60;99.90
39677;DHT22;27789;50.840;4.386;2022-11-21T04:37:21;7.60;99.90
39677;DHT22;27789;50.840;4.386;2022-11-21T04:39:47;7.60;99.90
39677;DHT22;27789;50.840;4.386;2022-11-21T04:42:12;7.50;99.90
39677;DHT22;27789;50.840;4.386;2022-11-21T04:44:38;7.50;99.90
39677;DHT22;27789;50.840;4.386;2022-11-21T04:47:03;7.50;99.90
39677;DHT22;27789;50.840;4.386;2022-11-21T04:49:29;7.50;99.90
39677;DHT22;27789;50.840;4.386;2022-11-21T04:51:55;7.50;99.90
39677;DHT22;27789;50.840;4.386;2022-11-21T04:54:20;7.40;99.90
39677;DHT22;27789;50.840;4.386;2022-11-21T04:56:46;7.40;99.90
39677;DHT22;27789;50.840;4.386;2022-11-21T04:59:11;7.40;99.90
39677;DHT22;27789;50.840;4.386;2022-11-21T05:01:37;7.40;99.90
39677;DHT22;27789;50.840;4.386;2022-11-21T05:04:03;7.40;99.90
39677;DHT22;27789;50.840;4.386;2022-11-21T05:06:29;7.40;99.90
39677;DHT22;27789;50.840;4.386;2022-11-21T05:08:54;7.30;99.90
39677;DHT22;27789;50.840;4.386;2022-11-21T05:11:20;7.40;99.90
39677;DHT22;27789;50.840;4.386;2022-11-21T05:13:57;7.30;99.90
39677;DHT22;27789;50.840;4.386;2022-11-21T05:16:22;7.30;99.90
39677;DHT22;27789;50.840;4.386;2022-11-21T05:18:48;7.30;99.90
39677;DHT22;27789;50.840;4.386;2022-11-21T05:21:13;7.20;99.90
39677;DHT22;27789;50.840;4.386;2022-11-21T05:23:39;7.20;99.90
39677;DHT22;27789;50.840;4.386;2022-11-21T05:26:04;7.20;99.90
39677;DHT22;27789;50.840;4.386;2022-11-21T05:28:30;7.20;99.90
39677;DHT22;27789;50.840;4.386;2022-11-21T05:30:55;7.20;99.90
39677;DHT22;27789;50.840;4.386;2022-11-21T05:33:21;7.20;99.90
39677;DHT22;27789;50.840;4.386;2022-11-21T05:35:46;7.10;99.90
39677;DHT22;27789;50.840;4.386;2022-11-21T05:38:12;7.10;99.90
39677;DHT22;27789;50.840;4.386;2022-11-21T05:40:38;7.10;99.90
39677;DHT22;27789;50.840;4.386;2022-11-21T05:43:04;7.00;99.90
39677;DHT22;27789;50.840;4.386;2022-11-21T05:45:40;7.10;99.90
39677;DHT22;27789;50.840;4.386;2022-11-21T05:48:06;7.00;99.90
39677;DHT22;27789;50.840;4.386;2022-11-21T05:50:33;7.00;99.90
39677;DHT22;27789;50.840;4.386;2022-11-21T05:53:03;7.00;99.90
39677;DHT22;27789;50.840;4.386;2022-11-21T05:55:29;7.00;99.90
39677;DHT22;27789;50.840;4.386;2022-11-21T05:57:57;6.90;99.90
39677;DHT22;27789;50.840;4.386;2022-11-21T06:00:24;7.00;99.90
39677;DHT22;27789;50.840;4.386;2022-11-21T06:02:49;6.90;99.90
39677;DHT22;27789;50.840;4.386;2022-11-21T06:05:26;6.90;99.90
39677;DHT22;27789;50.840;4.386;2022-11-21T06:07:51;6.90;99.90
39677;DHT22;27789;50.840;4.386;2022-11-21T06:10:17;6.80;99.90
39677;DHT22;27789;50.840;4.386;2022-11-21T06:12:43;6.80;99.90
39677;DHT22;27789;50.840;4.386;2022-11-21T06:15:08;6.70;99.90
39677;DHT22;27789;50.840;4.386;2022-11-21T06:17:34;6.70;99.90
39677;DHT22;27789;50.840;4.386;2022-11-21T06:20:00;6.60;99.90
39677;DHT22;27789;50.840;4.386;2022-11-21T06:22:25;6.50;99.90
39677;DHT22;27789;50.840;4.386;2022-11-21T06:24:51;6.40;99.90
39677;DHT22;27789;50.840;4.386;2022-11-21T06:27:16;6.40;99.90
39677;DHT22;27789;50.840;4.386;2022-11-21T06:29:42;6.40;99.90
39677;DHT22;27789;50.840;4.386;2022-11-21T06:32:07;6.40;99.90
39677;DHT22;27789;50.840;4.386;2022-11-21T06:34:33;6.40;99.90
39677;DHT22;27789;50.840;4.386;2022-11-21T06:36:59;6.30;99.90
39677;DHT22;27789;50.840;4.386;2022-11-21T06:39:24;6.30;99.90
39677;DHT22;27789;50.840;4.386;2022-11-21T06:41:50;6.30;99.90
39677;DHT22;27789;50.840;4.386;2022-11-21T06:44:19;6.30;99.90
39677;DHT22;27789;50.840;4.386;2022-11-21T06:46:44;6.40;99.90
39677;DHT22;27789;50.840;4.386;2022-11-21T06:49:10;6.30;99.90
39677;DHT22;27789;50.840;4.386;2022-11-21T06:51:36;6.30;99.90
39677;DHT22;27789;50.840;4.386;2022-11-21T06:54:01;6.40;99.90
39677;DHT22;27789;50.840;4.386;2022-11-21T06:56:29;6.40;99.90
39677;DHT22;27789;50.840;4.386;2022-11-21T06:58:55;6.30;99.90
39677;DHT22;27789;50.840;4.386;2022-11-21T07:01:21;6.30;99.90
39677;DHT22;27789;50.840;4.386;2022-11-21T07:03:47;6.30;99.90
39677;DHT22;27789;50.840;4.386;2022-11-21T07:06:13;6.20;99.90
39677;DHT22;27789;50.840;4.386;2022-11-21T07:08:38;6.20;99.90
39677;DHT22;27789;50.840;4.386;2022-11-21T07:11:09;6.20;99.90
39677;DHT22;27789;50.840;4.386;2022-11-21T07:13:35;6.30;99.90
39677;DHT22;27789;50.840;4.386;2022-11-21T07:16:03;6.20;99.90
39677;DHT22;27789;50.840;4.386;2022-11-21T07:18:29;6.30;99.90
39677;DHT22;27789;50.840;4.386;2022-11-21T07:20:59;6.40;99.90
39677;DHT22;27789;50.840;4.386;2022-11-21T07:23:25;6.40;99.90
39677;DHT22;27789;50.840;4.386;2022-11-21T07:25:51;6.50;99.90
39677;DHT22;27789;50.840;4.386;2022-11-21T07:28:20;6.60;99.90
39677;DHT22;27789;50.840;4.386;2022-11-21T07:30:45;6.60;99.90
39677;DHT22;27789;50.840;4.386;2022-11-21T07:33:11;6.60;99.90
39677;DHT22;27789;50.840;4.386;2022-11-21T07:35:37;6.70;99.90
39677;DHT22;27789;50.840;4.386;2022-11-21T07:38:03;6.70;99.90
39677;DHT22;27789;50.840;4.386;2022-11-21T07:40:29;6.70;99.90
39677;DHT22;27789;50.840;4.386;2022-11-21T07:43:02;6.70;99.90
39677;DHT22;27789;50.840;4.386;2022-11-21T07:45:28;6.70;99.90
39677;DHT22;27789;50.840;4.386;2022-11-21T07:47:57;6.80;99.90
39677;DHT22;27789;50.840;4.386;2022-11-21T07:50:22;6.80;99.90
39677;DHT22;27789;50.840;4.386;2022-11-21T07:52:48;6.90;99.90
39677;DHT22;27789;50.840;4.386;2022-11-21T07:55:13;6.90;99.90
39677;DHT22;27789;50.840;4.386;2022-11-21T07:57:39;6.90;99.90
39677;DHT22;27789;50.840;4.386;2022-11-21T08:00:05;7.00;99.90
39677;DHT22;27789;50.840;4.386;2022-11-21T08:02:34;7.00;99.90
39677;DHT22;27789;50.840;4.386;2022-11-21T08:05:00;7.10;99.90
39677;DHT22;27789;50.840;4.386;2022-11-21T08:07:26;7.20;99.90
39677;DHT22;27789;50.840;4.386;2022-11-21T08:09:52;7.20;99.90
39677;DHT22;27789;50.840;4.386;2022-11-21T08:12:17;7.30;99.90
39677;DHT22;27789;50.840;4.386;2022-11-21T08:14:43;7.30;99.90
39677;DHT22;27789;50.840;4.386;2022-11-21T08:17:08;7.20;99.90
39677;DHT22;27789;50.840;4.386;2022-11-21T08:19:35;7.20;99.90
39677;DHT22;27789;50.840;4.386;2022-11-21T08:22:01;7.30;99.90
39677;DHT22;27789;50.840;4.386;2022-11-21T08:24:26;7.30;99.90
39677;DHT22;27789;50.840;4.386;2022-11-21T08:26:52;7.40;99.90
39677;DHT22;27789;50.840;4.386;2022-11-21T08:29:18;7.40;99.90
39677;DHT22;27789;50.840;4.386;2022-11-21T08:31:44;7.40;99.90
39677;DHT22;27789;50.840;4.386;2022-11-21T08:34:10;7.50;99.90
39677;DHT22;27789;50.840;4.386;2022-11-21T08:36:36;7.50;99.90
39677;DHT22;27789;50.840;4.386;2022-11-21T08:39:04;7.60;99.90
39677;DHT22;27789;50.840;4.386;2022-11-21T08:41:30;7.60;99.90
39677;DHT22;27789;50.840;4.386;2022-11-21T08:44:07;7.50;99.90
39677;DHT22;27789;50.840;4.386;2022-11-21T08:46:33;7.50;99.90
39677;DHT22;27789;50.840;4.386;2022-11-21T08:49:05;7.50;99.90
39677;DHT22;27789;50.840;4.386;2022-11-21T08:51:30;7.50;99.90
39677;DHT22;27789;50.840;4.386;2022-11-21T08:53:56;7.50;99.90
39677;DHT22;27789;50.840;4.386;2022-11-21T08:56:22;7.60;99.90
39677;DHT22;27789;50.840;4.386;2022-11-21T08:58:48;7.70;99.90
39677;DHT22;27789;50.840;4.386;2022-11-21T09:01:13;7.70;99.90
39677;DHT22;27789;50.840;4.386;2022-11-21T09:03:39;7.80;99.90
39677;DHT22;27789;50.840;4.386;2022-11-21T09:06:07;7.90;99.90
39677;DHT22;27789;50.840;4.386;2022-11-21T09:08:33;7.90;99.90
39677;DHT22;27789;50.840;4.386;2022-11-21T09:11:06;8.00;99.90
39677;DHT22;27789;50.840;4.386;2022-11-21T09:13:33;8.10;99.90
39677;DHT22;27789;50.840;4.386;2022-11-21T09:15:59;8.20;99.90
39677;DHT22;27789;50.840;4.386;2022-11-21T09:18:35;8.20;99.90
39677;DHT22;27789;50.840;4.386;2022-11-21T09:21:01;8.30;99.90
39677;DHT22;27789;50.840;4.386;2022-11-21T09:23:26;8.40;99.90
39677;DHT22;27789;50.840;4.386;2022-11-21T09:25:52;8.50;99.90
39677;DHT22;27789;50.840;4.386;2022-11-21T09:28:17;8.60;99.90
39677;DHT22;27789;50.840;4.386;2022-11-21T09:30:43;8.70;99.90
39677;DHT22;27789;50.840;4.386;2022-11-21T09:33:12;8.80;99.90
39677;DHT22;27789;50.840;4.386;2022-11-21T09:35:37;9.00;99.90
39677;DHT22;27789;50.840;4.386;2022-11-21T09:38:04;9.10;99.90
39677;DHT22;27789;50.840;4.386;2022-11-21T09:40:31;9.20;99.90
39677;DHT22;27789;50.840;4.386;2022-11-21T09:45:33;9.60;99.90
39677;DHT22;27789;50.840;4.386;2022-11-21T09:48:03;10.00;99.90
39677;DHT22;27789;50.840;4.386;2022-11-21T09:56:14;11.20;99.90
39677;DHT22;27789;50.840;4.386;2022-11-21T09:58:43;11.60;99.90
39677;DHT22;27789;50.840;4.386;2022-11-21T10:01:14;11.70;99.90
39677;DHT22;27789;50.840;4.386;2022-11-21T10:03:45;11.50;99.90
39677;DHT22;27789;50.840;4.386;2022-11-21T10:06:18;11.20;99.90
39677;DHT22;27789;50.840;4.386;2022-11-21T10:14:14;10.10;99.90
39677;DHT22;27789;50.840;4.386;2022-11-21T10:16:57;9.80;99.90
39677;DHT22;27789;50.840;4.386;2022-11-21T10:24:59;9.30;99.90
39677;DHT22;27789;50.840;4.386;2022-11-21T10:27:30;9.10;99.90
39677;DHT22;27789;50.840;4.386;2022-11-21T10:30:03;9.00;99.90
39677;DHT22;27789;50.840;4.386;2022-11-21T10:32:36;8.90;99.90
39677;DHT22;27789;50.840;4.386;2022-11-21T10:35:13;8.90;99.90
39677;DHT22;27789;50.840;4.386;2022-11-21T10:37:44;8.90;99.90
39677;DHT22;27789;50.840;4.386;2022-11-21T10:43:05;8.70;99.90
39677;DHT22;27789;50.840;4.386;2022-11-21T10:45:49;8.70;99.90
39677;DHT22;27789;50.840;4.386;2022-11-21T10:48:15;8.90;99.90
39677;DHT22;27789;50.840;4.386;2022-11-21T10:53:31;9.10;99.90
39677;DHT22;27789;50.840;4.386;2022-11-21T10:56:16;9.20;99.90
39677;DHT22;27789;50.840;4.386;2022-11-21T10:58:48;9.30;99.90
39677;DHT22;27789;50.840;4.386;2022-11-21T11:01:29;9.30;99.90
39677;DHT22;27789;50.840;4.386;2022-11-21T11:06:38;9.20;99.90
39677;DHT22;27789;50.840;4.386;2022-11-21T11:09:04;9.20;99.90
39677;DHT22;27789;50.840;4.386;2022-11-21T11:11:31;9.20;99.90
39677;DHT22;27789;50.840;4.386;2022-11-21T11:14:03;9.30;99.90
39677;DHT22;27789;50.840;4.386;2022-11-21T11:16:30;9.30;99.90
39677;DHT22;27789;50.840;4.386;2022-11-21T11:29:24;9.60;99.90
39677;DHT22;27789;50.840;4.386;2022-11-21T11:32:02;9.40;99.90
39677;DHT22;27789;50.840;4.386;2022-11-21T11:34:37;9.40;99.90
39677;DHT22;27789;50.840;4.386;2022-11-21T11:37:18;9.40;99.90
39677;DHT22;27789;50.840;4.386;2022-11-21T11:48:09;9.50;99.90
39677;DHT22;27789;50.840;4.386;2022-11-21T11:50:52;9.40;99.90
39677;DHT22;27789;50.840;4.386;2022-11-21T11:53:25;9.50;99.90
39677;DHT22;27789;50.840;4.386;2022-11-21T11:56:06;9.50;99.90
39677;DHT22;27789;50.840;4.386;2022-11-21T12:01:19;9.60;99.90
39677;DHT22;27789;50.840;4.386;2022-11-21T12:06:33;9.50;99.90
39677;DHT22;27789;50.840;4.386;2022-11-21T12:09:03;9.60;99.90
39677;DHT22;27789;50.840;4.386;2022-11-21T12:20:29;9.50;99.90
39677;DHT22;27789;50.840;4.386;2022-11-21T12:22:55;9.50;99.90
39677;DHT22;27789;50.840;4.386;2022-11-21T12:25:27;9.40;99.90
39677;DHT22;27789;50.840;4.386;2022-11-21T12:27:55;9.50;99.90
39677;DHT22;27789;50.840;4.386;2022-11-21T12:33:05;9.50;99.90
39677;DHT22;27789;50.840;4.386;2022-11-21T12:35:52;9.60;99.90
39677;DHT22;27789;50.840;4.386;2022-11-21T12:38:29;9.70;99.90
39677;DHT22;27789;50.840;4.386;2022-11-21T12:41:19;9.70;99.90
39677;DHT22;27789;50.840;4.386;2022-11-21T12:46:48;9.70;99.90
39677;DHT22;27789;50.840;4.386;2022-11-21T12:52:21;9.90;99.90
39677;DHT22;27789;50.840;4.386;2022-11-21T13:00:17;10.00;99.90
39677;DHT22;27789;50.840;4.386;2022-11-21T13:05:28;9.90;99.90
39677;DHT22;27789;50.840;4.386;2022-11-21T13:08:00;9.90;99.90
39677;DHT22;27789;50.840;4.386;2022-11-21T13:10:29;9.80;99.90
39677;DHT22;27789;50.840;4.386;2022-11-21T13:13:04;10.00;99.90
39677;DHT22;27789;50.840;4.386;2022-11-21T13:15:40;10.00;99.90
39677;DHT22;27789;50.840;4.386;2022-11-21T13:18:22;10.00;99.90
39677;DHT22;27789;50.840;4.386;2022-11-21T13:20:55;10.10;99.90
39677;DHT22;27789;50.840;4.386;2022-11-21T13:23:35;10.00;99.90
39677;DHT22;27789;50.840;4.386;2022-11-21T13:29:12;10.00;99.90
39677;DHT22;27789;50.840;4.386;2022-11-21T13:31:39;10.00;99.90
39677;DHT22;27789;50.840;4.386;2022-11-21T13:36:57;10.00;99.90
39677;DHT22;27789;50.840;4.386;2022-11-21T13:41:59;10.00;99.90
39677;DHT22;27789;50.840;4.386;2022-11-21T13:55:58;10.00;99.90
39677;DHT22;27789;50.840;4.386;2022-11-21T14:04:11;10.00;99.90
39677;DHT22;27789;50.840;4.386;2022-11-21T14:06:32;10.00;99.90
39677;DHT22;27789;50.840;4.386;2022-11-21T14:11:55;10.00;99.90
39677;DHT22;27789;50.840;4.386;2022-11-21T14:19:56;10.00;99.90
39677;DHT22;27789;50.840;4.386;2022-11-21T14:22:33;9.90;99.90
39677;DHT22;27789;50.840;4.386;2022-11-21T14:25:00;10.00;99.90
39677;DHT22;27789;50.840;4.386;2022-11-21T14:27:31;10.00;99.90
39677;DHT22;27789;50.840;4.386;2022-11-21T14:30:00;9.90;99.90
39677;DHT22;27789;50.840;4.386;2022-11-21T14:32:29;9.90;99.90
39677;DHT22;27789;50.840;4.386;2022-11-21T14:35:06;9.90;99.90
39677;DHT22;27789;50.840;4.386;2022-11-21T14:37:32;9.90;99.90
39677;DHT22;27789;50.840;4.386;2022-11-21T14:39:58;9.80;99.90
39677;DHT22;27789;50.840;4.386;2022-11-21T14:42:34;9.90;99.90
39677;DHT22;27789;50.840;4.386;2022-11-21T14:45:13;9.80;99.90
39677;DHT22;27789;50.840;4.386;2022-11-21T14:47:51;9.80;99.90
39677;DHT22;27789;50.840;4.386;2022-11-21T14:50:28;9.70;99.90
39677;DHT22;27789;50.840;4.386;2022-11-21T14:52:55;9.70;99.90
39677;DHT22;27789;50.840;4.386;2022-11-21T14:55:31;9.80;99.90
39677;DHT22;27789;50.840;4.386;2022-11-21T14:57:59;9.80;99.90
39677;DHT22;27789;50.840;4.386;2022-11-21T15:00:27;9.70;99.90
39677;DHT22;27789;50.840;4.386;2022-11-21T15:02:55;9.70;99.90
39677;DHT22;27789;50.840;4.386;2022-11-21T15:05:27;9.70;99.90
39677;DHT22;27789;50.840;4.386;2022-11-21T15:07:53;9.70;99.90
39677;DHT22;27789;50.840;4.386;2022-11-21T15:10:21;9.70;99.90
39677;DHT22;27789;50.840;4.386;2022-11-21T15:13:13;9.70;99.90
39677;DHT22;27789;50.840;4.386;2022-11-21T15:15:46;9.70;99.90
39677;DHT22;27789;50.840;4.386;2022-11-21T15:18:16;9.70;99.90
39677;DHT22;27789;50.840;4.386;2022-11-21T15:20:48;9.70;99.90
39677;DHT22;27789;50.840;4.386;2022-11-21T15:23:32;9.70;99.90
39677;DHT22;27789;50.840;4.386;2022-11-21T15:25:59;9.80;99.90
39677;DHT22;27789;50.840;4.386;2022-11-21T15:28:25;9.70;99.90
39677;DHT22;27789;50.840;4.386;2022-11-21T15:36:20;9.80;99.90
39677;DHT22;27789;50.840;4.386;2022-11-21T15:41:26;9.60;99.90
39677;DHT22;27789;50.840;4.386;2022-11-21T15:46:33;9.70;99.90
39677;DHT22;27789;50.840;4.386;2022-11-21T15:49:00;9.70;99.90
39677;DHT22;27789;50.840;4.386;2022-11-21T15:51:38;9.70;99.90
39677;DHT22;27789;50.840;4.386;2022-11-21T15:54:06;9.70;99.90
39677;DHT22;27789;50.840;4.386;2022-11-21T15:56:32;9.70;99.90
39677;DHT22;27789;50.840;4.386;2022-11-21T15:58:58;9.70;99.90
39677;DHT22;27789;50.840;4.386;2022-11-21T16:01:26;9.80;99.90
39677;DHT22;27789;50.840;4.386;2022-11-21T16:03:58;9.70;99.90
39677;DHT22;27789;50.840;4.386;2022-11-21T16:06:24;9.70;99.90
39677;DHT22;27789;50.840;4.386;2022-11-21T16:08:50;9.70;99.90
39677;DHT22;27789;50.840;4.386;2022-11-21T16:11:50;9.70;99.90
39677;DHT22;27789;50.840;4.386;2022-11-21T16:14:13;9.60;99.90
39677;DHT22;27789;50.840;4.386;2022-11-21T16:16:40;9.60;99.90
39677;DHT22;27789;50.840;4.386;2022-11-21T16:19:08;9.70;99.90
39677;DHT22;27789;50.840;4.386;2022-11-21T16:21:35;9.70;99.90
39677;DHT22;27789;50.840;4.386;2022-11-21T16:24:00;9.60;99.90
39677;DHT22;27789;50.840;4.386;2022-11-21T16:26:26;9.60;99.90
39677;DHT22;27789;50.840;4.386;2022-11-21T16:28:55;9.60;99.90
39677;DHT22;27789;50.840;4.386;2022-11-21T16:31:23;9.60;99.90
39677;DHT22;27789;50.840;4.386;2022-11-21T16:33:50;9.60;99.90
39677;DHT22;27789;50.840;4.386;2022-11-21T16:36:23;9.60;99.90
39677;DHT22;27789;50.840;4.386;2022-11-21T16:38:49;9.50;99.90
39677;DHT22;27789;50.840;4.386;2022-11-21T16:41:19;9.60;99.90
39677;DHT22;27789;50.840;4.386;2022-11-21T16:43:46;9.60;99.90
39677;DHT22;27789;50.840;4.386;2022-11-21T16:46:12;9.60;99.90
39677;DHT22;27789;50.840;4.386;2022-11-21T16:48:38;9.60;99.90
39677;DHT22;27789;50.840;4.386;2022-11-21T16:51:22;9.60;99.90
39677;DHT22;27789;50.840;4.386;2022-11-21T16:53:48;9.60;99.90
39677;DHT22;27789;50.840;4.386;2022-11-21T16:56:14;9.60;99.90
39677;DHT22;27789;50.840;4.386;2022-11-21T16:58:41;9.60;99.90
39677;DHT22;27789;50.840;4.386;2022-11-21T17:01:14;9.50;99.90
39677;DHT22;27789;50.840;4.386;2022-11-21T17:03:41;9.50;99.90
39677;DHT22;27789;50.840;4.386;2022-11-21T17:06:08;9.50;99.90
39677;DHT22;27789;50.840;4.386;2022-11-21T17:08:35;9.50;99.90
39677;DHT22;27789;50.840;4.386;2022-11-21T17:11:18;9.40;99.90
39677;DHT22;27789;50.840;4.386;2022-11-21T17:13:45;9.40;99.90
39677;DHT22;27789;50.840;4.386;2022-11-21T17:16:12;9.40;99.90
39677;DHT22;27789;50.840;4.386;2022-11-21T17:18:38;9.40;99.90
39677;DHT22;27789;50.840;4.386;2022-11-21T17:21:09;9.40;99.90
39677;DHT22;27789;50.840;4.386;2022-11-21T17:23:36;9.40;99.90
39677;DHT22;27789;50.840;4.386;2022-11-21T17:26:03;9.40;99.90
39677;DHT22;27789;50.840;4.386;2022-11-21T17:28:30;9.30;99.90
39677;DHT22;27789;50.840;4.386;2022-11-21T17:30:56;9.30;99.90
39677;DHT22;27789;50.840;4.386;2022-11-21T17:33:22;9.30;99.90
39677;DHT22;27789;50.840;4.386;2022-11-21T17:35:48;9.30;99.90
39677;DHT22;27789;50.840;4.386;2022-11-21T17:38:13;9.30;99.90
39677;DHT22;27789;50.840;4.386;2022-11-21T17:40:39;9.30;99.90
39677;DHT22;27789;50.840;4.386;2022-11-21T17:43:04;9.30;99.90
39677;DHT22;27789;50.840;4.386;2022-11-21T17:45:30;9.20;99.90
39677;DHT22;27789;50.840;4.386;2022-11-21T17:47:56;9.20;99.90
39677;DHT22;27789;50.840;4.386;2022-11-21T17:50:21;9.10;99.90
39677;DHT22;27789;50.840;4.386;2022-11-21T17:52:50;9.20;99.90
39677;DHT22;27789;50.840;4.386;2022-11-21T17:55:15;9.20;99.90
39677;DHT22;27789;50.840;4.386;2022-11-21T17:57:41;9.10;99.90
39677;DHT22;27789;50.840;4.386;2022-11-21T18:00:07;9.20;99.90
39677;DHT22;27789;50.840;4.386;2022-11-21T18:02:33;9.10;99.90
39677;DHT22;27789;50.840;4.386;2022-11-21T18:04:58;9.20;99.90
39677;DHT22;27789;50.840;4.386;2022-11-21T18:07:24;9.10;99.90